sensor_id;sensor_type;location;lat;lon;timestamp;P1;durP1;ratioP1;P2;durP2;ratioP2
22138;SDS011;25815;52.582;13.408;2023-04-29T00:00:32;8.85;;;5.40;;
22138;SDS011;25815;52.582;13.408;2023-04-29T00:02:58;7.88;;;5.82;;
22138;SDS011;25815;52.582;13.408;2023-04-29T00:05:24;7.35;;;4.97;;
22138;SDS011;25815;52.582;13.408;2023-04-29T00:07:50;9.55;;;5.80;;
22138;SDS011;25815;52.582;13.408;2023-04-29T00:10:17;7.82;;;5.32;;
22138;SDS011;25815;52.582;13.408;2023-04-29T00:12:43;8.85;;;5.90;;
22138;SDS011;25815;52.582;13.408;2023-04-29T00:15:09;8.80;;;5.53;;
22138;SDS011;25815;52.582;13.408;2023-04-29T00:17:35;8.30;;;5.85;;
22138;SDS011;25815;52.582;13.408;2023-04-29T00:20:01;10.65;;;5.80;;
22138;SDS011;25815;52.582;13.408;2023-04-29T00:22:27;8.25;;;5.70;;
22138;SDS011;25815;52.582;13.408;2023-04-29T00:24:53;8.05;;;5.97;;
22138;SDS011;25815;52.582;13.408;2023-04-29T00:27:19;6.80;;;5.22;;
22138;SDS011;25815;52.582;13.408;2023-04-29T00:29:45;9.75;;;6.22;;
22138;SDS011;25815;52.582;13.408;2023-04-29T00:32:11;10.15;;;5.68;;
22138;SDS011;25815;52.582;13.408;2023-04-29T00:34:37;8.07;;;5.70;;
22138;SDS011;25815;52.582;13.408;2023-04-29T00:37:03;10.13;;;6.35;;
22138;SDS011;25815;52.582;13.408;2023-04-29T00:39:29;10.88;;;6.05;;
22138;SDS011;25815;52.582;13.408;2023-04-29T00:41:55;8.35;;;5.72;;
22138;SDS011;25815;52.582;13.408;2023-04-29T00:44:21;8.95;;;5.85;;
22138;SDS011;25815;52.582;13.408;2023-04-29T00:46:47;7.47;;;5.53;;
22138;SDS011;25815;52.582;13.408;2023-04-29T00:49:13;9.35;;;6.15;;
22138;SDS011;25815;52.582;13.408;2023-04-29T00:51:39;11.38;;;5.85;;
22138;SDS011;25815;52.582;13.408;2023-04-29T00:54:06;8.88;;;6.03;;
22138;SDS011;25815;52.582;13.408;2023-04-29T00:56:33;11.48;;;5.70;;
22138;SDS011;25815;52.582;13.408;2023-04-29T00:59:00;12.40;;;6.47;;
22138;SDS011;25815;52.582;13.408;2023-04-29T01:01:27;7.03;;;6.10;;
22138;SDS011;25815;52.582;13.408;2023-04-29T01:03:53;8.50;;;6.00;;
22138;SDS011;25815;52.582;13.408;2023-04-29T01:06:32;8.23;;;6.25;;
22138;SDS011;25815;52.582;13.408;2023-04-29T01:11:29;8.18;;;6.03;;
22138;SDS011;25815;52.582;13.408;2023-04-29T01:13:58;9.15;;;6.65;;
22138;SDS011;25815;52.582;13.408;2023-04-29T01:17:09;12.23;;;6.40;;
22138;SDS011;25815;52.582;13.408;2023-04-29T01:19:38;10.23;;;6.47;;
22138;SDS011;25815;52.582;13.408;2023-04-29T01:22:07;9.60;;;6.35;;
22138;SDS011;25815;52.582;13.408;2023-04-29T01:24:33;8.80;;;6.43;;
22138;SDS011;25815;52.582;13.408;2023-04-29T01:27:04;9.77;;;6.82;;
22138;SDS011;25815;52.582;13.408;2023-04-29T01:29:39;11.48;;;6.97;;
22138;SDS011;25815;52.582;13.408;2023-04-29T01:32:12;9.25;;;6.88;;
22138;SDS011;25815;52.582;13.408;2023-04-29T01:34:56;10.48;;;7.45;;
22138;SDS011;25815;52.582;13.408;2023-04-29T01:37:40;9.32;;;7.75;;
22138;SDS011;25815;52.582;13.408;2023-04-29T01:42:35;10.77;;;7.22;;
22138;SDS011;25815;52.582;13.408;2023-04-29T01:45:04;10.30;;;7.82;;
22138;SDS011;25815;52.582;13.408;2023-04-29T01:47:31;9.50;;;7.78;;
22138;SDS011;25815;52.582;13.408;2023-04-29T01:49:57;10.68;;;8.02;;
22138;SDS011;25815;52.582;13.408;2023-04-29T01:52:24;11.15;;;7.80;;
22138;SDS011;25815;52.582;13.408;2023-04-29T01:54:49;11.68;;;7.93;;
22138;SDS011;25815;52.582;13.408;2023-04-29T01:57:15;12.57;;;8.65;;
22138;SDS011;25815;52.582;13.408;2023-04-29T01:59:41;12.68;;;8.60;;
22138;SDS011;25815;52.582;13.408;2023-04-29T02:02:07;11.55;;;8.20;;
22138;SDS011;25815;52.582;13.408;2023-04-29T02:04:34;13.60;;;8.13;;
22138;SDS011;25815;52.582;13.408;2023-04-29T02:07:00;12.63;;;9.07;;
22138;SDS011;25815;52.582;13.408;2023-04-29T02:09:26;11.23;;;8.77;;
22138;SDS011;25815;52.582;13.408;2023-04-29T02:11:52;12.60;;;9.05;;
22138;SDS011;25815;52.582;13.408;2023-04-29T02:14:18;13.85;;;9.15;;
22138;SDS011;25815;52.582;13.408;2023-04-29T02:16:44;11.43;;;9.38;;
22138;SDS011;25815;52.582;13.408;2023-04-29T02:19:10;12.35;;;8.93;;
22138;SDS011;25815;52.582;13.408;2023-04-29T02:21:36;11.38;;;8.98;;
22138;SDS011;25815;52.582;13.408;2023-04-29T02:24:04;12.48;;;9.63;;
22138;SDS011;25815;52.582;13.408;2023-04-29T02:26:30;12.27;;;9.65;;
22138;SDS011;25815;52.582;13.408;2023-04-29T02:28:56;12.90;;;9.48;;
22138;SDS011;25815;52.582;13.408;2023-04-29T02:31:22;11.88;;;9.85;;
22138;SDS011;25815;52.582;13.408;2023-04-29T02:33:49;14.18;;;10.90;;
22138;SDS011;25815;52.582;13.408;2023-04-29T02:36:15;11.52;;;9.70;;
22138;SDS011;25815;52.582;13.408;2023-04-29T02:38:42;12.93;;;10.65;;
22138;SDS011;25815;52.582;13.408;2023-04-29T02:41:08;14.40;;;10.63;;
22138;SDS011;25815;52.582;13.408;2023-04-29T02:43:34;15.65;;;11.90;;
22138;SDS011;25815;52.582;13.408;2023-04-29T02:46:00;13.63;;;11.52;;
22138;SDS011;25815;52.582;13.408;2023-04-29T02:48:25;14.18;;;10.98;;
22138;SDS011;25815;52.582;13.408;2023-04-29T02:50:51;15.35;;;12.45;;
22138;SDS011;25815;52.582;13.408;2023-04-29T02:53:17;17.30;;;12.75;;
22138;SDS011;25815;52.582;13.408;2023-04-29T02:55:44;18.50;;;11.80;;
22138;SDS011;25815;52.582;13.408;2023-04-29T02:58:11;14.68;;;12.13;;
22138;SDS011;25815;52.582;13.408;2023-04-29T03:00:37;18.05;;;12.93;;
22138;SDS011;25815;52.582;13.408;2023-04-29T03:03:05;17.25;;;13.07;;
22138;SDS011;25815;52.582;13.408;2023-04-29T03:05:31;18.08;;;12.43;;
22138;SDS011;25815;52.582;13.408;2023-04-29T03:07:57;18.80;;;12.55;;
22138;SDS011;25815;52.582;13.408;2023-04-29T03:10:22;18.40;;;13.75;;
22138;SDS011;25815;52.582;13.408;2023-04-29T03:12:48;16.38;;;13.10;;
22138;SDS011;25815;52.582;13.408;2023-04-29T03:15:14;18.45;;;13.88;;
22138;SDS011;25815;52.582;13.408;2023-04-29T03:17:41;16.50;;;13.00;;
22138;SDS011;25815;52.582;13.408;2023-04-29T03:20:07;16.83;;;13.98;;
22138;SDS011;25815;52.582;13.408;2023-04-29T03:22:34;18.08;;;14.15;;
22138;SDS011;25815;52.582;13.408;2023-04-29T03:25:01;18.75;;;13.95;;
22138;SDS011;25815;52.582;13.408;2023-04-29T03:27:26;19.85;;;14.70;;
22138;SDS011;25815;52.582;13.408;2023-04-29T03:29:53;16.70;;;13.38;;
22138;SDS011;25815;52.582;13.408;2023-04-29T03:32:18;20.42;;;14.32;;
22138;SDS011;25815;52.582;13.408;2023-04-29T03:34:44;18.13;;;15.10;;
22138;SDS011;25815;52.582;13.408;2023-04-29T03:37:10;19.92;;;15.63;;
22138;SDS011;25815;52.582;13.408;2023-04-29T03:39:36;20.45;;;16.25;;
22138;SDS011;25815;52.582;13.408;2023-04-29T03:42:02;23.08;;;16.63;;
22138;SDS011;25815;52.582;13.408;2023-04-29T03:44:28;20.67;;;16.70;;
22138;SDS011;25815;52.582;13.408;2023-04-29T03:46:54;26.77;;;16.98;;
22138;SDS011;25815;52.582;13.408;2023-04-29T03:49:20;20.83;;;16.20;;
22138;SDS011;25815;52.582;13.408;2023-04-29T03:51:47;21.77;;;16.92;;
22138;SDS011;25815;52.582;13.408;2023-04-29T03:54:13;24.50;;;17.63;;
22138;SDS011;25815;52.582;13.408;2023-04-29T03:56:39;22.67;;;17.00;;
22138;SDS011;25815;52.582;13.408;2023-04-29T03:59:05;22.33;;;17.15;;
22138;SDS011;25815;52.582;13.408;2023-04-29T04:01:31;22.88;;;17.30;;
22138;SDS011;25815;52.582;13.408;2023-04-29T04:03:57;23.67;;;17.33;;
22138;SDS011;25815;52.582;13.408;2023-04-29T04:06:23;27.17;;;18.88;;
22138;SDS011;25815;52.582;13.408;2023-04-29T04:08:50;22.30;;;17.75;;
22138;SDS011;25815;52.582;13.408;2023-04-29T04:11:15;24.15;;;17.65;;
22138;SDS011;25815;52.582;13.408;2023-04-29T04:13:41;25.08;;;18.65;;
22138;SDS011;25815;52.582;13.408;2023-04-29T04:16:10;23.70;;;17.63;;
22138;SDS011;25815;52.582;13.408;2023-04-29T04:18:37;26.38;;;19.30;;
22138;SDS011;25815;52.582;13.408;2023-04-29T04:21:06;27.02;;;20.38;;
22138;SDS011;25815;52.582;13.408;2023-04-29T04:25:58;27.27;;;19.88;;
22138;SDS011;25815;52.582;13.408;2023-04-29T04:28:24;26.33;;;20.42;;
22138;SDS011;25815;52.582;13.408;2023-04-29T04:30:50;28.58;;;19.95;;
22138;SDS011;25815;52.582;13.408;2023-04-29T04:33:16;28.00;;;21.02;;
22138;SDS011;25815;52.582;13.408;2023-04-29T04:35:42;32.30;;;21.58;;
22138;SDS011;25815;52.582;13.408;2023-04-29T04:38:08;28.60;;;21.27;;
22138;SDS011;25815;52.582;13.408;2023-04-29T04:40:35;35.28;;;21.45;;
22138;SDS011;25815;52.582;13.408;2023-04-29T04:43:01;31.20;;;22.23;;
22138;SDS011;25815;52.582;13.408;2023-04-29T04:45:27;29.85;;;21.85;;
22138;SDS011;25815;52.582;13.408;2023-04-29T04:47:54;35.20;;;23.27;;
22138;SDS011;25815;52.582;13.408;2023-04-29T04:50:20;31.98;;;23.20;;
22138;SDS011;25815;52.582;13.408;2023-04-29T04:52:46;32.70;;;22.73;;
22138;SDS011;25815;52.582;13.408;2023-04-29T04:55:13;31.00;;;22.30;;
22138;SDS011;25815;52.582;13.408;2023-04-29T04:57:42;33.38;;;23.33;;
22138;SDS011;25815;52.582;13.408;2023-04-29T05:00:08;30.70;;;22.42;;
22138;SDS011;25815;52.582;13.408;2023-04-29T05:02:34;30.67;;;22.63;;
22138;SDS011;25815;52.582;13.408;2023-04-29T05:05:00;31.67;;;23.13;;
22138;SDS011;25815;52.582;13.408;2023-04-29T05:07:26;32.95;;;22.30;;
22138;SDS011;25815;52.582;13.408;2023-04-29T05:09:52;34.40;;;23.85;;
22138;SDS011;25815;52.582;13.408;2023-04-29T05:12:18;31.40;;;23.45;;
22138;SDS011;25815;52.582;13.408;2023-04-29T05:14:44;34.42;;;23.27;;
22138;SDS011;25815;52.582;13.408;2023-04-29T05:17:10;35.28;;;23.80;;
22138;SDS011;25815;52.582;13.408;2023-04-29T05:19:36;32.08;;;23.20;;
22138;SDS011;25815;52.582;13.408;2023-04-29T05:22:01;33.67;;;23.15;;
22138;SDS011;25815;52.582;13.408;2023-04-29T05:24:27;34.28;;;24.33;;
22138;SDS011;25815;52.582;13.408;2023-04-29T05:26:54;36.20;;;25.30;;
22138;SDS011;25815;52.582;13.408;2023-04-29T05:29:20;32.88;;;23.33;;
22138;SDS011;25815;52.582;13.408;2023-04-29T05:31:46;34.95;;;24.50;;
22138;SDS011;25815;52.582;13.408;2023-04-29T05:34:12;36.17;;;24.98;;
22138;SDS011;25815;52.582;13.408;2023-04-29T05:36:38;35.80;;;25.05;;
22138;SDS011;25815;52.582;13.408;2023-04-29T05:39:04;34.40;;;24.67;;
22138;SDS011;25815;52.582;13.408;2023-04-29T05:41:30;37.03;;;26.00;;
22138;SDS011;25815;52.582;13.408;2023-04-29T05:43:56;34.65;;;25.23;;
22138;SDS011;25815;52.582;13.408;2023-04-29T05:46:22;38.13;;;25.52;;
22138;SDS011;25815;52.582;13.408;2023-04-29T05:48:48;39.10;;;25.23;;
22138;SDS011;25815;52.582;13.408;2023-04-29T05:51:14;37.30;;;26.10;;
22138;SDS011;25815;52.582;13.408;2023-04-29T05:53:40;39.03;;;25.95;;
22138;SDS011;25815;52.582;13.408;2023-04-29T05:56:06;37.30;;;25.40;;
22138;SDS011;25815;52.582;13.408;2023-04-29T05:58:32;38.47;;;26.45;;
22138;SDS011;25815;52.582;13.408;2023-04-29T06:00:58;37.15;;;25.25;;
22138;SDS011;25815;52.582;13.408;2023-04-29T06:03:25;35.33;;;23.77;;
22138;SDS011;25815;52.582;13.408;2023-04-29T06:05:51;37.38;;;25.08;;
22138;SDS011;25815;52.582;13.408;2023-04-29T06:08:17;36.03;;;25.08;;
22138;SDS011;25815;52.582;13.408;2023-04-29T06:10:43;33.83;;;23.25;;
22138;SDS011;25815;52.582;13.408;2023-04-29T06:13:10;35.80;;;24.17;;
22138;SDS011;25815;52.582;13.408;2023-04-29T06:15:36;34.97;;;23.88;;
22138;SDS011;25815;52.582;13.408;2023-04-29T06:18:02;33.20;;;23.23;;
22138;SDS011;25815;52.582;13.408;2023-04-29T06:20:28;34.55;;;23.27;;
22138;SDS011;25815;52.582;13.408;2023-04-29T06:22:54;38.63;;;24.38;;
22138;SDS011;25815;52.582;13.408;2023-04-29T06:25:20;36.90;;;25.00;;
22138;SDS011;25815;52.582;13.408;2023-04-29T06:27:46;40.20;;;24.42;;
22138;SDS011;25815;52.582;13.408;2023-04-29T06:30:12;36.83;;;24.17;;
22138;SDS011;25815;52.582;13.408;2023-04-29T06:32:38;32.83;;;22.48;;
22138;SDS011;25815;52.582;13.408;2023-04-29T06:35:04;33.42;;;22.77;;
22138;SDS011;25815;52.582;13.408;2023-04-29T06:37:31;33.15;;;23.10;;
22138;SDS011;25815;52.582;13.408;2023-04-29T06:39:56;28.98;;;21.35;;
22138;SDS011;25815;52.582;13.408;2023-04-29T06:42:22;33.00;;;21.25;;
22138;SDS011;25815;52.582;13.408;2023-04-29T06:44:48;35.40;;;21.40;;
22138;SDS011;25815;52.582;13.408;2023-04-29T06:47:14;30.08;;;19.77;;
22138;SDS011;25815;52.582;13.408;2023-04-29T06:49:41;31.75;;;20.27;;
22138;SDS011;25815;52.582;13.408;2023-04-29T06:52:09;30.13;;;20.13;;
22138;SDS011;25815;52.582;13.408;2023-04-29T06:54:35;29.30;;;19.23;;
22138;SDS011;25815;52.582;13.408;2023-04-29T06:57:01;29.65;;;19.83;;
22138;SDS011;25815;52.582;13.408;2023-04-29T06:59:27;29.17;;;19.75;;
22138;SDS011;25815;52.582;13.408;2023-04-29T07:01:53;32.60;;;20.27;;
22138;SDS011;25815;52.582;13.408;2023-04-29T07:04:19;31.25;;;21.17;;
22138;SDS011;25815;52.582;13.408;2023-04-29T07:06:45;33.28;;;20.17;;
22138;SDS011;25815;52.582;13.408;2023-04-29T07:09:12;32.67;;;20.45;;
22138;SDS011;25815;52.582;13.408;2023-04-29T07:11:38;32.65;;;20.95;;
22138;SDS011;25815;52.582;13.408;2023-04-29T07:14:04;34.35;;;21.45;;
22138;SDS011;25815;52.582;13.408;2023-04-29T07:16:31;31.77;;;21.05;;
22138;SDS011;25815;52.582;13.408;2023-04-29T07:18:57;33.35;;;20.90;;
22138;SDS011;25815;52.582;13.408;2023-04-29T07:21:23;34.20;;;20.23;;
22138;SDS011;25815;52.582;13.408;2023-04-29T07:23:49;30.63;;;20.88;;
22138;SDS011;25815;52.582;13.408;2023-04-29T07:26:16;30.85;;;20.40;;
22138;SDS011;25815;52.582;13.408;2023-04-29T07:28:42;28.48;;;19.10;;
22138;SDS011;25815;52.582;13.408;2023-04-29T07:31:08;30.27;;;20.15;;
22138;SDS011;25815;52.582;13.408;2023-04-29T07:33:36;28.15;;;20.20;;
22138;SDS011;25815;52.582;13.408;2023-04-29T07:36:02;27.25;;;18.88;;
22138;SDS011;25815;52.582;13.408;2023-04-29T07:38:28;23.88;;;18.40;;
22138;SDS011;25815;52.582;13.408;2023-04-29T07:40:54;23.88;;;17.45;;
22138;SDS011;25815;52.582;13.408;2023-04-29T07:43:20;23.27;;;17.20;;
22138;SDS011;25815;52.582;13.408;2023-04-29T07:45:47;22.05;;;16.90;;
22138;SDS011;25815;52.582;13.408;2023-04-29T07:48:13;20.38;;;16.90;;
22138;SDS011;25815;52.582;13.408;2023-04-29T07:50:39;23.20;;;16.92;;
22138;SDS011;25815;52.582;13.408;2023-04-29T07:53:05;20.95;;;16.02;;
22138;SDS011;25815;52.582;13.408;2023-04-29T07:55:31;19.33;;;15.45;;
22138;SDS011;25815;52.582;13.408;2023-04-29T07:57:57;17.63;;;14.35;;
22138;SDS011;25815;52.582;13.408;2023-04-29T08:00:23;17.00;;;14.23;;
22138;SDS011;25815;52.582;13.408;2023-04-29T08:02:54;20.33;;;15.07;;
22138;SDS011;25815;52.582;13.408;2023-04-29T08:05:21;19.75;;;14.68;;
22138;SDS011;25815;52.582;13.408;2023-04-29T08:07:48;17.55;;;14.00;;
22138;SDS011;25815;52.582;13.408;2023-04-29T08:10:14;18.40;;;13.30;;
22138;SDS011;25815;52.582;13.408;2023-04-29T08:12:40;17.85;;;13.70;;
22138;SDS011;25815;52.582;13.408;2023-04-29T08:15:06;17.17;;;13.95;;
22138;SDS011;25815;52.582;13.408;2023-04-29T08:17:32;18.15;;;14.13;;
22138;SDS011;25815;52.582;13.408;2023-04-29T08:19:58;17.38;;;14.65;;
22138;SDS011;25815;52.582;13.408;2023-04-29T08:22:24;18.67;;;14.65;;
22138;SDS011;25815;52.582;13.408;2023-04-29T08:24:50;19.33;;;15.15;;
22138;SDS011;25815;52.582;13.408;2023-04-29T08:27:16;18.20;;;14.10;;
22138;SDS011;25815;52.582;13.408;2023-04-29T08:29:42;19.35;;;14.15;;
22138;SDS011;25815;52.582;13.408;2023-04-29T08:32:08;18.33;;;14.80;;
22138;SDS011;25815;52.582;13.408;2023-04-29T08:34:34;17.73;;;14.32;;
22138;SDS011;25815;52.582;13.408;2023-04-29T08:37:03;17.60;;;14.13;;
22138;SDS011;25815;52.582;13.408;2023-04-29T08:39:29;17.38;;;13.95;;
22138;SDS011;25815;52.582;13.408;2023-04-29T08:41:56;17.55;;;13.98;;
22138;SDS011;25815;52.582;13.408;2023-04-29T08:44:24;20.25;;;14.15;;
22138;SDS011;25815;52.582;13.408;2023-04-29T08:46:51;18.83;;;14.45;;
22138;SDS011;25815;52.582;13.408;2023-04-29T08:49:17;18.55;;;13.88;;
22138;SDS011;25815;52.582;13.408;2023-04-29T08:51:43;18.25;;;14.07;;
22138;SDS011;25815;52.582;13.408;2023-04-29T08:54:10;18.85;;;14.60;;
22138;SDS011;25815;52.582;13.408;2023-04-29T08:56:35;19.20;;;14.55;;
22138;SDS011;25815;52.582;13.408;2023-04-29T08:59:02;28.25;;;18.00;;
22138;SDS011;25815;52.582;13.408;2023-04-29T09:01:30;28.23;;;18.05;;
22138;SDS011;25815;52.582;13.408;2023-04-29T09:04:03;30.27;;;19.00;;
22138;SDS011;25815;52.582;13.408;2023-04-29T09:06:29;31.77;;;19.70;;
22138;SDS011;25815;52.582;13.408;2023-04-29T09:08:58;40.67;;;22.67;;
22138;SDS011;25815;52.582;13.408;2023-04-29T09:11:24;33.60;;;21.65;;
22138;SDS011;25815;52.582;13.408;2023-04-29T09:13:50;32.15;;;21.33;;
22138;SDS011;25815;52.582;13.408;2023-04-29T09:16:16;37.55;;;23.25;;
22138;SDS011;25815;52.582;13.408;2023-04-29T09:18:46;34.38;;;22.55;;
22138;SDS011;25815;52.582;13.408;2023-04-29T09:21:12;36.90;;;22.23;;
22138;SDS011;25815;52.582;13.408;2023-04-29T09:23:39;36.70;;;23.15;;
22138;SDS011;25815;52.582;13.408;2023-04-29T09:26:05;37.63;;;23.60;;
22138;SDS011;25815;52.582;13.408;2023-04-29T09:28:31;39.00;;;23.92;;
22138;SDS011;25815;52.582;13.408;2023-04-29T09:30:57;38.10;;;24.55;;
22138;SDS011;25815;52.582;13.408;2023-04-29T09:33:23;42.63;;;24.75;;
22138;SDS011;25815;52.582;13.408;2023-04-29T09:35:52;42.87;;;24.43;;
22138;SDS011;25815;52.582;13.408;2023-04-29T09:38:18;42.03;;;26.00;;
22138;SDS011;25815;52.582;13.408;2023-04-29T09:40:45;41.08;;;25.63;;
22138;SDS011;25815;52.582;13.408;2023-04-29T09:43:13;44.88;;;27.23;;
22138;SDS011;25815;52.582;13.408;2023-04-29T09:45:40;51.97;;;29.17;;
22138;SDS011;25815;52.582;13.408;2023-04-29T09:48:07;46.63;;;28.98;;
22138;SDS011;25815;52.582;13.408;2023-04-29T09:50:33;47.42;;;28.58;;
22138;SDS011;25815;52.582;13.408;2023-04-29T09:53:02;50.75;;;32.42;;
22138;SDS011;25815;52.582;13.408;2023-04-29T09:55:29;55.30;;;32.53;;
22138;SDS011;25815;52.582;13.408;2023-04-29T09:57:56;54.80;;;33.28;;
22138;SDS011;25815;52.582;13.408;2023-04-29T10:00:22;57.00;;;33.85;;
22138;SDS011;25815;52.582;13.408;2023-04-29T10:05:16;58.30;;;35.78;;
22138;SDS011;25815;52.582;13.408;2023-04-29T10:07:44;56.30;;;34.33;;
22138;SDS011;25815;52.582;13.408;2023-04-29T10:10:11;54.00;;;34.42;;
22138;SDS011;25815;52.582;13.408;2023-04-29T10:12:38;54.65;;;33.13;;
22138;SDS011;25815;52.582;13.408;2023-04-29T10:15:19;51.78;;;32.55;;
22138;SDS011;25815;52.582;13.408;2023-04-29T10:17:48;50.65;;;32.95;;
22138;SDS011;25815;52.582;13.408;2023-04-29T10:20:20;49.97;;;32.97;;
22138;SDS011;25815;52.582;13.408;2023-04-29T10:22:48;46.33;;;31.50;;
22138;SDS011;25815;52.582;13.408;2023-04-29T10:25:14;48.78;;;31.67;;
22138;SDS011;25815;52.582;13.408;2023-04-29T10:27:41;44.25;;;29.17;;
22138;SDS011;25815;52.582;13.408;2023-04-29T10:30:08;44.05;;;30.08;;
22138;SDS011;25815;52.582;13.408;2023-04-29T10:32:36;40.83;;;27.77;;
22138;SDS011;25815;52.582;13.408;2023-04-29T10:35:05;39.97;;;27.92;;
22138;SDS011;25815;52.582;13.408;2023-04-29T10:37:31;37.47;;;27.55;;
22138;SDS011;25815;52.582;13.408;2023-04-29T10:47:40;34.38;;;25.67;;
22138;SDS011;25815;52.582;13.408;2023-04-29T10:50:07;36.70;;;25.25;;
22138;SDS011;25815;52.582;13.408;2023-04-29T10:52:55;35.22;;;24.27;;
22138;SDS011;25815;52.582;13.408;2023-04-29T10:55:24;28.40;;;22.60;;
22138;SDS011;25815;52.582;13.408;2023-04-29T10:57:53;31.47;;;23.47;;
22138;SDS011;25815;52.582;13.408;2023-04-29T11:00:31;28.70;;;21.83;;
22138;SDS011;25815;52.582;13.408;2023-04-29T11:02:57;29.35;;;22.00;;
22138;SDS011;25815;52.582;13.408;2023-04-29T11:05:33;31.90;;;23.00;;
22138;SDS011;25815;52.582;13.408;2023-04-29T11:10:36;27.10;;;21.38;;
22138;SDS011;25815;52.582;13.408;2023-04-29T11:15:47;27.33;;;20.00;;
22138;SDS011;25815;52.582;13.408;2023-04-29T11:18:13;26.27;;;20.25;;
22138;SDS011;25815;52.582;13.408;2023-04-29T11:23:24;28.67;;;19.20;;
22138;SDS011;25815;52.582;13.408;2023-04-29T11:25:50;23.30;;;16.88;;
22138;SDS011;25815;52.582;13.408;2023-04-29T11:28:16;24.48;;;17.55;;
22138;SDS011;25815;52.582;13.408;2023-04-29T11:30:43;22.70;;;17.63;;
22138;SDS011;25815;52.582;13.408;2023-04-29T11:33:10;22.85;;;16.27;;
22138;SDS011;25815;52.582;13.408;2023-04-29T11:35:37;25.13;;;17.42;;
22138;SDS011;25815;52.582;13.408;2023-04-29T11:38:04;19.40;;;15.35;;
22138;SDS011;25815;52.582;13.408;2023-04-29T11:40:31;20.17;;;15.20;;
22138;SDS011;25815;52.582;13.408;2023-04-29T11:42:57;22.25;;;14.95;;
22138;SDS011;25815;52.582;13.408;2023-04-29T11:45:23;20.25;;;13.90;;
22138;SDS011;25815;52.582;13.408;2023-04-29T11:47:49;18.60;;;13.80;;
22138;SDS011;25815;52.582;13.408;2023-04-29T11:50:16;18.40;;;13.48;;
22138;SDS011;25815;52.582;13.408;2023-04-29T11:52:44;20.38;;;13.73;;
22138;SDS011;25815;52.582;13.408;2023-04-29T11:55:10;22.42;;;13.60;;
22138;SDS011;25815;52.582;13.408;2023-04-29T11:57:37;17.70;;;13.13;;
22138;SDS011;25815;52.582;13.408;2023-04-29T12:00:04;19.35;;;12.93;;
22138;SDS011;25815;52.582;13.408;2023-04-29T12:02:31;22.10;;;13.60;;
22138;SDS011;25815;52.582;13.408;2023-04-29T12:04:57;17.80;;;12.70;;
22138;SDS011;25815;52.582;13.408;2023-04-29T12:07:25;17.45;;;12.00;;
22138;SDS011;25815;52.582;13.408;2023-04-29T12:09:50;18.67;;;12.52;;
22138;SDS011;25815;52.582;13.408;2023-04-29T12:12:16;16.73;;;12.55;;
22138;SDS011;25815;52.582;13.408;2023-04-29T12:14:42;15.77;;;12.00;;
22138;SDS011;25815;52.582;13.408;2023-04-29T12:17:09;18.08;;;12.18;;
22138;SDS011;25815;52.582;13.408;2023-04-29T12:19:35;14.93;;;11.82;;
22138;SDS011;25815;52.582;13.408;2023-04-29T12:22:02;16.90;;;11.93;;
22138;SDS011;25815;52.582;13.408;2023-04-29T12:24:31;17.67;;;12.38;;
22138;SDS011;25815;52.582;13.408;2023-04-29T12:26:59;17.17;;;12.47;;
22138;SDS011;25815;52.582;13.408;2023-04-29T12:29:25;15.38;;;10.73;;
22138;SDS011;25815;52.582;13.408;2023-04-29T12:31:51;16.02;;;11.57;;
22138;SDS011;25815;52.582;13.408;2023-04-29T12:34:23;18.48;;;12.35;;
22138;SDS011;25815;52.582;13.408;2023-04-29T12:36:49;15.98;;;10.50;;
22138;SDS011;25815;52.582;13.408;2023-04-29T12:39:15;12.80;;;9.95;;
22138;SDS011;25815;52.582;13.408;2023-04-29T12:41:41;13.13;;;9.77;;
22138;SDS011;25815;52.582;13.408;2023-04-29T12:44:08;14.18;;;8.93;;
22138;SDS011;25815;52.582;13.408;2023-04-29T12:46:37;13.95;;;8.95;;
22138;SDS011;25815;52.582;13.408;2023-04-29T12:49:04;11.98;;;8.75;;
22138;SDS011;25815;52.582;13.408;2023-04-29T12:51:33;14.10;;;8.60;;
22138;SDS011;25815;52.582;13.408;2023-04-29T12:54:00;11.43;;;8.68;;
22138;SDS011;25815;52.582;13.408;2023-04-29T12:56:27;10.63;;;7.78;;
22138;SDS011;25815;52.582;13.408;2023-04-29T12:58:53;12.65;;;8.20;;
22138;SDS011;25815;52.582;13.408;2023-04-29T13:01:19;10.88;;;7.35;;
22138;SDS011;25815;52.582;13.408;2023-04-29T13:03:45;9.93;;;7.25;;
22138;SDS011;25815;52.582;13.408;2023-04-29T13:06:11;10.88;;;7.63;;
22138;SDS011;25815;52.582;13.408;2023-04-29T13:08:37;9.45;;;7.38;;
22138;SDS011;25815;52.582;13.408;2023-04-29T13:11:03;10.75;;;7.30;;
22138;SDS011;25815;52.582;13.408;2023-04-29T13:13:29;8.48;;;6.63;;
22138;SDS011;25815;52.582;13.408;2023-04-29T13:15:55;10.75;;;7.10;;
22138;SDS011;25815;52.582;13.408;2023-04-29T13:18:21;9.85;;;6.15;;
22138;SDS011;25815;52.582;13.408;2023-04-29T13:20:47;9.50;;;6.03;;
22138;SDS011;25815;52.582;13.408;2023-04-29T13:23:13;8.07;;;6.07;;
22138;SDS011;25815;52.582;13.408;2023-04-29T13:25:40;8.40;;;6.07;;
22138;SDS011;25815;52.582;13.408;2023-04-29T13:28:06;8.00;;;5.82;;
22138;SDS011;25815;52.582;13.408;2023-04-29T13:30:32;7.43;;;5.55;;
22138;SDS011;25815;52.582;13.408;2023-04-29T13:32:58;7.25;;;5.75;;
22138;SDS011;25815;52.582;13.408;2023-04-29T13:35:24;7.97;;;5.80;;
22138;SDS011;25815;52.582;13.408;2023-04-29T13:37:50;11.32;;;6.28;;
22138;SDS011;25815;52.582;13.408;2023-04-29T13:40:16;8.38;;;6.20;;
22138;SDS011;25815;52.582;13.408;2023-04-29T13:42:42;12.70;;;8.43;;
22138;SDS011;25815;52.582;13.408;2023-04-29T13:45:08;9.93;;;6.97;;
22138;SDS011;25815;52.582;13.408;2023-04-29T13:47:35;10.75;;;7.00;;
22138;SDS011;25815;52.582;13.408;2023-04-29T13:50:01;8.80;;;7.18;;
22138;SDS011;25815;52.582;13.408;2023-04-29T13:52:27;11.05;;;8.07;;
22138;SDS011;25815;52.582;13.408;2023-04-29T13:54:54;10.65;;;7.55;;
22138;SDS011;25815;52.582;13.408;2023-04-29T13:57:20;14.05;;;7.68;;
22138;SDS011;25815;52.582;13.408;2023-04-29T13:59:46;12.10;;;7.38;;
22138;SDS011;25815;52.582;13.408;2023-04-29T14:02:12;16.23;;;8.18;;
22138;SDS011;25815;52.582;13.408;2023-04-29T14:04:38;9.63;;;7.43;;
22138;SDS011;25815;52.582;13.408;2023-04-29T14:07:04;12.63;;;6.82;;
22138;SDS011;25815;52.582;13.408;2023-04-29T14:09:30;14.68;;;7.63;;
22138;SDS011;25815;52.582;13.408;2023-04-29T14:11:57;10.20;;;7.00;;
22138;SDS011;25815;52.582;13.408;2023-04-29T14:14:23;12.02;;;7.70;;
22138;SDS011;25815;52.582;13.408;2023-04-29T14:16:48;11.65;;;8.07;;
22138;SDS011;25815;52.582;13.408;2023-04-29T14:19:14;13.38;;;7.32;;
22138;SDS011;25815;52.582;13.408;2023-04-29T14:21:40;10.18;;;7.35;;
22138;SDS011;25815;52.582;13.408;2023-04-29T14:24:06;11.07;;;8.05;;
22138;SDS011;25815;52.582;13.408;2023-04-29T14:26:32;11.80;;;7.22;;
22138;SDS011;25815;52.582;13.408;2023-04-29T14:28:59;10.75;;;7.00;;
22138;SDS011;25815;52.582;13.408;2023-04-29T14:31:25;10.45;;;6.95;;
22138;SDS011;25815;52.582;13.408;2023-04-29T14:33:54;11.48;;;6.20;;
22138;SDS011;25815;52.582;13.408;2023-04-29T14:36:21;9.80;;;6.25;;